Time;durP1;ratioP1;P1;durP2;ratioP2;P2;SDS_P1;SDS_P2;PMS_P1;PMS_P2;Temp;Humidity;BMP_temperature;BMP_pressure;BME280_temperature;BME280_humidity;BME280_pressure;Samples;Min_cycle;Max_cycle;Signal;HPM_P1;HPM_P2
2022/07/01 00:00:49;;;;;;;17.45;12.88;;;13.50;99.90;;;;;;5096260;28;20443;-92
2022/07/01 00:03:15;;;;;;;16.30;11.80;;;13.50;99.90;;;;;;5095596;28;20034;-91
2022/07/01 00:05:41;;;;;;;14.60;11.88;;;13.50;99.90;;;;;;5096997;28;20031;-92
2022/07/01 00:08:50;;;;;;;17.00;11.95;;;13.40;99.90;;;;;;5114109;28;20448;-93
2022/07/01 00:11:16;;;;;;;13.65;11.82;;;13.40;99.90;;;;;;5096156;28;20158;-91
2022/07/01 00:13:42;;;;;;;19.95;14.27;;;13.50;99.90;;;;;;5096005;28;20499;-92
2022/07/01 00:16:07;;;;;;;14.60;11.90;;;13.50;99.90;;;;;;5095213;28;20020;-92
2022/07/01 00:18:33;;;;;;;14.95;11.65;;;13.40;99.90;;;;;;5095406;28;20035;-91
2022/07/01 00:21:00;;;;;;;14.15;11.82;;;13.40;99.90;;;;;;5095610;28;20042;-91
2022/07/01 00:23:27;;;;;;;14.13;11.57;;;13.30;99.90;;;;;;5095184;28;20032;-91
2022/07/01 00:25:53;;;;;;;13.48;11.43;;;13.40;99.90;;;;;;5094979;28;20040;-92
2022/07/01 00:28:19;;;;;;;18.50;11.25;;;13.40;99.90;;;;;;5095715;28;20034;-90
2022/07/01 00:31:00;;;;;;;14.15;12.65;;;13.40;99.90;;;;;;5095821;28;20032;-90
2022/07/01 00:33:26;;;;;;;22.58;11.35;;;13.40;99.90;;;;;;5095125;28;20670;-91
2022/07/01 00:35:53;;;;;;;14.82;12.57;;;13.40;99.90;;;;;;5095860;28;20085;-90
2022/07/01 00:38:20;;;;;;;17.25;12.23;;;13.40;99.90;;;;;;5078464;28;20097;-90
2022/07/01 00:40:54;;;;;;;18.08;13.15;;;13.50;99.90;;;;;;5095381;28;20628;-91
2022/07/01 00:43:24;;;;;;;17.02;11.73;;;13.40;99.90;;;;;;5094893;28;20040;-89
2022/07/01 00:45:51;;;;;;;13.50;11.32;;;13.30;99.90;;;;;;5095377;28;20035;-91
2022/07/01 00:48:21;;;;;;;15.90;11.48;;;13.30;99.90;;;;;;5094895;28;20074;-91
2022/07/01 00:50:47;;;;;;;15.95;12.00;;;13.20;99.90;;;;;;5095006;28;20128;-91
2022/07/01 00:53:14;;;;;;;15.55;12.88;;;13.30;99.90;;;;;;5095295;28;20024;-92
2022/07/01 00:55:41;;;;;;;18.98;13.48;;;13.30;99.90;;;;;;5095154;28;20039;-90
2022/07/01 00:58:08;;;;;;;17.50;12.38;;;13.30;99.90;;;;;;5112047;28;20091;-91
2022/07/01 01:00:34;;;;;;;24.10;14.13;;;13.30;99.90;;;;;;5094638;28;20036;-90
2022/07/01 01:03:00;;;;;;;17.10;13.68;;;13.30;99.90;;;;;;5094350;28;20028;-91
2022/07/01 01:05:26;;;;;;;52.00;15.80;;;13.20;99.90;;;;;;5095137;28;20031;-91
2022/07/01 01:07:51;;;;;;;19.42;15.60;;;13.20;99.90;;;;;;5095387;28;20021;-90
2022/07/01 01:10:18;;;;;;;23.35;16.98;;;13.20;99.90;;;;;;5094112;28;20513;-90
2022/07/01 01:12:44;;;;;;;22.88;16.35;;;13.20;99.90;;;;;;5094137;28;20039;-90
2022/07/01 01:15:16;;;;;;;19.83;16.58;;;13.20;99.90;;;;;;5094203;28;20028;-91
2022/07/01 01:17:42;;;;;;;24.80;16.52;;;13.10;99.90;;;;;;5094823;28;20032;-91
2022/07/01 01:20:08;;;;;;;22.60;15.88;;;13.00;99.90;;;;;;5095255;28;20387;-89
2022/07/01 01:22:34;;;;;;;20.55;15.27;;;12.90;99.90;;;;;;5096068;28;20095;-90
2022/07/01 01:25:00;;;;;;;21.25;14.68;;;12.80;99.90;;;;;;5096351;28;20055;-90
2022/07/01 01:27:25;;;;;;;17.63;13.48;;;12.70;99.90;;;;;;5095480;28;20029;-90
2022/07/01 01:29:51;;;;;;;15.63;13.23;;;12.70;99.90;;;;;;5098979;28;20043;-90
2022/07/01 01:32:17;;;;;;;12.98;10.77;;;12.60;99.90;;;;;;5100290;28;20520;-88
2022/07/01 01:34:42;;;;;;;13.90;11.07;;;12.50;99.90;;;;;;5099755;28;20036;-90
2022/07/01 01:37:09;;;;;;;12.63;10.38;;;12.50;99.90;;;;;;5099803;28;20036;-91
2022/07/01 01:39:37;;;;;;;15.40;10.80;;;12.40;99.90;;;;;;5099975;28;20025;-90
2022/07/01 01:42:05;;;;;;;11.50;9.70;;;12.40;99.90;;;;;;5099646;28;20028;-90
2022/07/01 01:44:31;;;;;;;10.73;9.60;;;12.50;99.90;;;;;;5098841;28;20057;-91
2022/07/01 01:46:57;;;;;;;11.65;7.88;;;12.40;99.90;;;;;;5099297;28;20032;-89
2022/07/01 01:49:23;;;;;;;8.75;7.47;;;12.30;99.90;;;;;;5098958;28;20039;-90
2022/07/01 01:51:48;;;;;;;10.65;8.68;;;12.30;99.90;;;;;;5098563;28;20118;-90
2022/07/01 01:54:14;;;;;;;9.23;7.57;;;12.20;99.90;;;;;;5098983;28;20028;-90
2022/07/01 01:56:40;;;;;;;11.27;7.93;;;12.10;99.90;;;;;;5098712;28;20082;-89
2022/07/01 01:59:06;;;;;;;10.43;9.05;;;12.00;99.90;;;;;;5097939;28;20036;-89
2022/07/01 02:01:32;;;;;;;11.52;10.07;;;12.10;99.90;;;;;;5115820;28;20035;-92
2022/07/01 02:03:58;;;;;;;14.98;10.80;;;12.10;99.90;;;;;;5098943;28;20093;-91
2022/07/01 02:06:25;;;;;;;14.43;11.73;;;12.00;99.90;;;;;;5098893;28;20024;-91
2022/07/01 02:08:51;;;;;;;20.65;12.15;;;12.00;99.90;;;;;;5098435;28;20040;-91
2022/07/01 02:11:17;;;;;;;16.60;12.38;;;12.00;99.90;;;;;;5098692;28;20073;-89
2022/07/01 02:13:44;;;;;;;24.23;13.85;;;12.00;99.90;;;;;;5098906;28;20024;-92
2022/07/01 02:16:10;;;;;;;21.73;15.82;;;12.00;99.90;;;;;;5098832;28;20063;-91
2022/07/01 02:18:36;;;;;;;20.38;15.50;;;12.10;99.90;;;;;;5099078;28;20481;-90
2022/07/01 02:21:02;;;;;;;22.10;15.77;;;12.00;99.90;;;;;;5100184;28;20156;-90
2022/07/01 02:23:29;;;;;;;20.00;15.73;;;11.90;99.90;;;;;;5100433;28;20036;-93
2022/07/01 02:25:55;;;;;;;20.48;13.93;;;12.00;99.90;;;;;;5100574;28;20032;-91
2022/07/01 02:28:21;;;;;;;19.45;14.98;;;11.90;99.90;;;;;;5099940;28;20024;-92
2022/07/01 02:30:47;;;;;;;19.92;14.57;;;12.00;99.90;;;;;;5099585;28;20059;-91
2022/07/01 02:33:13;;;;;;;20.50;14.77;;;12.00;99.90;;;;;;5101020;28;20028;-92
2022/07/01 02:35:40;;;;;;;20.45;16.13;;;12.00;99.90;;;;;;5099151;28;20027;-92
2022/07/01 02:38:07;;;;;;;18.20;15.05;;;12.00;99.90;;;;;;5099411;28;20043;-91
2022/07/01 02:40:39;;;;;;;19.88;14.40;;;12.00;99.90;;;;;;5099067;28;20059;-92
2022/07/01 02:43:06;;;;;;;16.30;13.55;;;11.90;99.90;;;;;;5099991;28;20501;-93
2022/07/01 02:45:32;;;;;;;18.42;14.00;;;11.90;99.90;;;;;;5100041;28;20585;-92
2022/07/01 02:47:58;;;;;;;16.77;14.10;;;11.90;99.90;;;;;;5099987;28;20032;-91
2022/07/01 02:50:24;;;;;;;20.40;16.27;;;11.80;99.90;;;;;;5100315;28;20020;-92
2022/07/01 02:52:49;;;;;;;21.05;15.98;;;11.90;99.90;;;;;;5101560;28;20032;-92
2022/07/01 02:55:16;;;;;;;19.98;15.05;;;11.90;99.90;;;;;;5101098;28;20032;-94
2022/07/01 02:57:42;;;;;;;21.65;15.25;;;11.80;99.90;;;;;;5102077;28;20055;-91
2022/07/01 03:00:11;;;;;;;20.95;15.20;;;11.80;99.90;;;;;;5101503;28;20038;-92
2022/07/01 03:02:37;;;;;;;18.73;14.70;;;11.80;99.90;;;;;;5102564;28;20036;-93
2022/07/01 03:05:04;;;;;;;18.23;14.05;;;11.80;99.90;;;;;;5101698;28;20036;-92
2022/07/01 03:07:30;;;;;;;20.48;14.35;;;11.70;99.90;;;;;;5101160;28;20021;-93
2022/07/01 03:09:56;;;;;;;20.58;14.45;;;11.70;99.90;;;;;;5102833;28;20032;-91
2022/07/01 03:12:25;;;;;;;16.88;14.73;;;11.70;99.90;;;;;;5102057;28;20024;-93
2022/07/01 03:14:54;;;;;;;18.38;14.18;;;11.70;99.90;;;;;;5101483;28;20032;-94
2022/07/01 03:17:19;;;;;;;20.38;14.93;;;11.70;99.90;;;;;;5101673;28;20024;-92
2022/07/01 03:19:46;;;;;;;17.33;12.57;;;11.70;99.90;;;;;;5101673;28;20032;-92
2022/07/01 03:22:13;;;;;;;14.20;9.90;;;11.60;99.90;;;;;;5102581;28;20078;-94
2022/07/01 03:24:41;;;;;;;13.32;10.93;;;11.50;99.90;;;;;;5102489;28;20039;-93
2022/07/01 03:27:08;;;;;;;14.15;9.57;;;11.50;99.90;;;;;;5100812;28;20083;-92
2022/07/01 03:29:34;;;;;;;11.63;9.38;;;11.60;99.90;;;;;;5119664;28;20024;-93
2022/07/01 03:32:00;;;;;;;15.45;10.50;;;11.50;99.90;;;;;;5118755;28;20036;-91
2022/07/01 03:34:26;;;;;;;11.13;9.95;;;11.40;99.90;;;;;;5101835;28;20027;-92
2022/07/01 03:36:52;;;;;;;13.02;10.05;;;11.50;99.90;;;;;;5101895;28;20028;-91
2022/07/01 03:39:17;;;;;;;12.52;9.43;;;11.40;99.90;;;;;;5101241;28;20031;-92
2022/07/01 03:41:44;;;;;;;13.20;9.30;;;11.40;99.90;;;;;;5101585;28;20031;-92
2022/07/01 03:44:09;;;;;;;12.48;9.15;;;11.40;99.90;;;;;;5100600;28;20048;-91
2022/07/01 03:46:35;;;;;;;15.52;10.68;;;11.40;99.90;;;;;;5101592;28;20039;-93
2022/07/01 03:49:02;;;;;;;14.23;11.57;;;11.40;99.90;;;;;;5101142;28;20044;-93
2022/07/01 03:51:28;;;;;;;15.63;11.65;;;11.40;99.90;;;;;;5099707;28;20031;-92
2022/07/01 03:56:38;;;;;;;17.38;11.40;;;11.50;99.90;;;;;;5100501;28;20024;-94
2022/07/01 03:59:04;;;;;;;20.35;13.27;;;11.50;99.90;;;;;;5100167;28;20050;-93
2022/07/01 04:01:31;;;;;;;17.08;13.50;;;11.50;99.90;;;;;;5099998;28;20026;-93
2022/07/01 04:03:57;;;;;;;19.85;15.02;;;11.60;99.90;;;;;;5100729;28;20076;-94
2022/07/01 04:06:23;;;;;;;19.33;15.98;;;11.50;99.90;;;;;;5100457;28;20028;-93
2022/07/01 04:08:49;;;;;;;20.13;15.70;;;11.60;99.90;;;;;;5099367;28;20039;-91
2022/07/01 04:11:16;;;;;;;21.92;18.17;;;11.60;99.90;;;;;;5099375;28;20031;-91
2022/07/01 04:13:49;;;;;;;20.20;16.00;;;11.60;99.90;;;;;;5099321;28;20029;-92
2022/07/01 04:16:19;;;;;;;21.38;16.50;;;11.60;99.90;;;;;;5100280;28;20081;-90
2022/07/01 04:18:49;;;;;;;23.00;17.58;;;11.70;99.90;;;;;;5097845;28;20375;-90
2022/07/01 04:24:19;;;;;;;16.50;13.65;;;11.70;99.90;;;;;;5056399;28;20488;-91
2022/07/01 04:26:45;;;;;;;18.83;14.55;;;11.60;99.90;;;;;;5056781;28;20025;-92
2022/07/01 04:29:11;;;;;;;17.70;15.68;;;11.60;99.90;;;;;;5075522;28;20032;-94
2022/07/01 04:31:38;;;;;;;21.52;15.55;;;11.70;99.90;;;;;;5096864;28;20506;-92
2022/07/01 04:34:05;;;;;;;18.25;14.25;;;11.70;99.90;;;;;;5096500;28;20425;-93
2022/07/01 04:36:31;;;;;;;23.73;14.50;;;11.70;99.90;;;;;;5096853;28;20085;-91
2022/07/01 04:38:57;;;;;;;17.30;14.98;;;11.70;99.90;;;;;;5097892;28;20032;-92
2022/07/01 04:44:23;;;;;;;19.00;13.00;;;11.80;99.90;;;;;;5096236;28;20031;-91
2022/07/01 04:46:48;;;;;;;14.32;12.20;;;11.80;99.90;;;;;;5096165;28;20077;-93
2022/07/01 04:49:14;;;;;;;14.10;12.27;;;11.80;99.90;;;;;;5096788;28;20115;-91
2022/07/01 04:51:40;;;;;;;13.70;11.68;;;11.80;99.90;;;;;;5097256;28;20024;-92
2022/07/01 04:54:07;;;;;;;11.50;10.30;;;11.80;99.90;;;;;;5096863;28;20547;-92
2022/07/01 04:56:34;;;;;;;15.93;12.27;;;11.80;99.90;;;;;;5099950;28;20017;-92
2022/07/01 04:59:00;;;;;;;15.32;10.52;;;11.90;99.90;;;;;;5097920;28;20494;-91
2022/07/01 05:01:28;;;;;;;13.75;9.77;;;11.90;99.90;;;;;;5096788;28;20020;-92
2022/07/01 05:03:54;;;;;;;14.02;10.30;;;11.80;99.90;;;;;;5099644;28;20024;-92
2022/07/01 05:06:20;;;;;;;12.23;9.50;;;11.90;99.90;;;;;;5100646;28;20031;-91
2022/07/01 05:08:45;;;;;;;10.20;8.27;;;11.90;99.90;;;;;;5100634;28;20028;-91
2022/07/01 05:11:11;;;;;;;11.15;8.25;;;12.00;99.90;;;;;;5101076;28;20043;-93
2022/07/01 05:13:37;;;;;;;9.00;7.65;;;12.10;99.90;;;;;;5100529;28;20021;-92
2022/07/01 05:24:03;;;;;;;10.15;6.65;;;12.20;99.90;;;;;;5101199;28;20113;-90
2022/07/01 05:34:03;;;;;;;8.07;5.93;;;12.40;99.90;;;;;;5100811;28;20031;-92
2022/07/01 05:36:28;;;;;;;9.10;7.40;;;12.40;99.90;;;;;;5100125;28;20040;-91
2022/07/01 05:38:54;;;;;;;13.95;7.60;;;12.20;99.90;;;;;;5100450;28;20122;-93
2022/07/01 05:41:20;;;;;;;8.55;7.32;;;12.20;99.90;;;;;;5100155;28;20036;-91
2022/07/01 05:43:46;;;;;;;9.50;8.07;;;12.10;99.90;;;;;;5100356;28;20035;-93
2022/07/01 05:46:12;;;;;;;9.95;7.53;;;12.20;99.90;;;;;;5099478;28;20067;-93
2022/07/01 05:48:38;;;;;;;12.50;9.05;;;12.20;99.90;;;;;;5098902;28;20043;-92
2022/07/01 05:51:03;;;;;;;9.27;6.68;;;12.20;99.90;;;;;;5100137;28;20497;-92
2022/07/01 05:53:29;;;;;;;7.57;6.38;;;12.20;99.90;;;;;;5099644;28;20039;-92
2022/07/01 05:55:55;;;;;;;8.52;6.78;;;12.10;99.90;;;;;;5100761;28;20024;-91
2022/07/01 05:58:21;;;;;;;8.48;6.88;;;12.20;99.90;;;;;;5099782;28;20039;-92
2022/07/01 06:00:47;;;;;;;13.40;7.05;;;12.20;99.90;;;;;;5098936;28;20028;-92
2022/07/01 06:03:14;;;;;;;11.05;6.97;;;12.20;99.90;;;;;;5099069;28;20494;-93
2022/07/01 06:05:41;;;;;;;11.63;6.72;;;12.30;99.90;;;;;;5098905;28;20028;-91
2022/07/01 06:08:07;;;;;;;12.05;6.93;;;12.30;99.90;;;;;;5098974;28;20085;-91
2022/07/01 06:10:34;;;;;;;12.45;7.20;;;12.30;99.90;;;;;;5099550;28;20096;-92
2022/07/01 06:12:59;;;;;;;11.18;6.55;;;12.30;99.90;;;;;;5099663;28;20024;-92
2022/07/01 06:15:26;;;;;;;9.93;7.40;;;12.20;99.90;;;;;;5098470;28;20506;-94
2022/07/01 06:17:53;;;;;;;10.35;7.07;;;12.10;99.90;;;;;;5100347;28;20059;-93
2022/07/01 06:20:19;;;;;;;12.18;7.95;;;12.00;99.90;;;;;;5101732;28;20024;-94
2022/07/01 06:22:45;;;;;;;14.32;9.07;;;12.00;99.90;;;;;;5103119;28;20483;-93
2022/07/01 06:25:15;;;;;;;12.15;8.52;;;11.90;99.90;;;;;;5103739;28;20035;-94
2022/07/01 06:27:43;;;;;;;15.57;8.52;;;11.80;99.90;;;;;;5129785;28;20038;-96
2022/07/01 06:30:10;;;;;;;15.20;9.00;;;11.70;99.90;;;;;;5106950;28;20528;-96
2022/07/01 06:32:39;;;;;;;14.13;9.48;;;11.70;99.90;;;;;;5110528;28;20047;-96
2022/07/01 06:35:07;;;;;;;15.50;10.35;;;11.70;99.90;;;;;;5097583;28;20020;-96
2022/07/01 06:37:36;;;;;;;13.50;10.32;;;11.60;99.90;;;;;;5096793;28;20028;-96
2022/07/01 06:40:09;;;;;;;19.52;12.15;;;11.60;99.90;;;;;;5114109;28;20089;-95
2022/07/01 06:42:36;;;;;;;16.27;11.68;;;11.60;99.90;;;;;;5117468;28;20028;-96
2022/07/01 06:45:28;;;;;;;19.35;13.05;;;11.60;99.90;;;;;;5117931;28;20026;-96
2022/07/01 06:51:44;;;;;;;20.00;14.48;;;11.60;99.90;;;;;;5118637;28;20042;-95
2022/07/01 06:59:50;;;;;;;22.27;14.32;;;11.60;99.90;;;;;;5054189;28;20052;-91
2022/07/01 07:02:18;;;;;;;18.45;13.20;;;11.60;99.90;;;;;;5035020;28;20470;-91
2022/07/01 07:04:44;;;;;;;23.92;14.10;;;11.60;99.90;;;;;;5034613;28;20033;-92
2022/07/01 07:07:10;;;;;;;23.35;14.40;;;11.70;99.90;;;;;;5035095;28;20082;-91
2022/07/01 07:09:36;;;;;;;20.77;14.00;;;11.60;99.90;;;;;;5051528;28;20029;-91
2022/07/01 07:12:02;;;;;;;24.85;15.23;;;11.50;99.90;;;;;;5053632;28;20020;-92
2022/07/01 07:14:35;;;;;;;27.25;15.05;;;11.60;99.90;;;;;;5052819;28;20116;-91
2022/07/01 07:17:01;;;;;;;23.77;14.93;;;11.50;99.90;;;;;;5059473;28;20029;-92
2022/07/01 07:19:26;;;;;;;24.73;15.43;;;11.50;99.90;;;;;;5033596;28;20036;-91
2022/07/01 07:21:52;;;;;;;26.77;16.58;;;11.50;99.90;;;;;;5070075;28;20032;-92
2022/07/01 07:24:18;;;;;;;23.95;15.93;;;11.50;99.90;;;;;;5052102;28;20802;-90
2022/07/01 07:26:44;;;;;;;25.02;15.50;;;11.50;99.90;;;;;;5054724;28;20029;-91
2022/07/01 07:29:10;;;;;;;25.02;16.52;;;11.50;99.90;;;;;;5053174;28;20035;-92
2022/07/01 07:31:38;;;;;;;24.88;15.90;;;11.50;99.90;;;;;;5051287;28;20112;-90
2022/07/01 07:34:04;;;;;;;28.67;17.98;;;11.60;99.90;;;;;;5034704;28;20104;-91
2022/07/01 07:36:29;;;;;;;27.08;17.10;;;11.60;99.90;;;;;;5034825;28;20513;-90
2022/07/01 07:38:55;;;;;;;27.63;17.67;;;11.70;99.90;;;;;;5067922;28;20051;-90
2022/07/01 07:41:21;;;;;;;24.30;16.83;;;11.70;99.90;;;;;;5052243;28;20029;-90
2022/07/01 07:43:48;;;;;;;31.77;18.52;;;11.70;99.90;;;;;;5051582;28;20025;-90
2022/07/01 07:46:14;;;;;;;26.58;16.85;;;11.70;99.90;;;;;;5071763;28;20068;-91
2022/07/01 07:48:42;;;;;;;29.85;18.05;;;11.70;99.90;;;;;;5064573;28;20060;-90
2022/07/01 07:51:09;;;;;;;28.45;17.20;;;11.70;99.90;;;;;;5051314;28;20036;-90
2022/07/01 07:53:35;;;;;;;28.58;18.02;;;11.70;99.90;;;;;;5062273;28;20060;-91
2022/07/01 07:56:01;;;;;;;38.72;20.35;;;11.80;99.90;;;;;;5068031;28;20048;-89
2022/07/01 07:58:44;;;;;;;29.98;19.95;;;11.90;99.90;;;;;;5076075;28;20036;-91
2022/07/01 08:01:10;;;;;;;31.08;18.90;;;11.90;99.90;;;;;;5072132;28;20025;-90
2022/07/01 08:03:36;;;;;;;28.85;18.10;;;12.00;99.90;;;;;;5076773;28;20025;-92
2022/07/01 08:06:01;;;;;;;27.98;17.05;;;12.10;99.90;;;;;;5073161;28;20081;-90
2022/07/01 08:08:31;;;;;;;30.55;18.10;;;12.10;99.90;;;;;;5050580;28;20053;-90
2022/07/01 08:10:56;;;;;;;27.48;16.73;;;12.20;99.90;;;;;;5056228;28;20398;-90
2022/07/01 08:13:22;;;;;;;21.55;16.38;;;12.30;99.90;;;;;;5056539;28;20040;-90
2022/07/01 08:15:48;;;;;;;22.20;15.85;;;12.30;99.90;;;;;;5055826;28;20079;-91
2022/07/01 08:18:13;;;;;;;26.95;16.08;;;12.30;99.90;;;;;;5072053;28;20029;-90
2022/07/01 08:20:39;;;;;;;25.45;15.95;;;12.40;99.90;;;;;;5053538;28;20620;-91
2022/07/01 08:23:13;;;;;;;18.08;14.02;;;12.50;99.90;;;;;;5037280;28;20022;-90
2022/07/01 08:25:39;;;;;;;20.40;13.43;;;12.60;99.90;;;;;;5069880;28;20037;-90
2022/07/01 08:28:04;;;;;;;18.08;13.05;;;12.70;99.90;;;;;;5037866;28;20565;-90
2022/07/01 08:30:30;;;;;;;16.27;12.50;;;12.90;99.90;;;;;;5052198;28;20063;-91
2022/07/01 08:32:56;;;;;;;14.27;11.55;;;12.90;99.90;;;;;;5034847;28;20032;-90
2022/07/01 08:35:29;;;;;;;16.20;11.23;;;13.20;99.90;;;;;;5064407;28;20091;-90
2022/07/01 08:37:57;;;;;;;18.42;11.32;;;13.30;99.90;;;;;;5055442;28;20505;-90
2022/07/01 08:40:30;;;;;;;13.70;10.05;;;13.40;99.90;;;;;;5069002;28;20040;-90
2022/07/01 08:43:02;;;;;;;13.48;9.32;;;13.30;99.90;;;;;;5051980;28;20499;-89
2022/07/01 08:45:31;;;;;;;16.30;9.05;;;13.40;99.90;;;;;;5068103;28;20122;-87
2022/07/01 08:48:02;;;;;;;12.85;9.18;;;13.50;99.90;;;;;;5050633;28;20033;-90
2022/07/01 08:50:36;;;;;;;12.80;10.25;;;13.60;99.90;;;;;;5052768;28;20025;-90
2022/07/01 08:53:05;;;;;;;13.40;8.77;;;13.70;99.90;;;;;;5027184;28;20409;-91
2022/07/01 08:55:31;;;;;;;14.15;10.00;;;13.80;99.90;;;;;;5052075;28;20037;-92
2022/07/01 08:57:58;;;;;;;11.05;8.38;;;13.50;99.90;;;;;;5050685;28;20029;-91
2022/07/01 09:00:40;;;;;;;13.20;9.88;;;13.30;99.90;;;;;;5050914;28;20024;-90
2022/07/01 09:03:05;;;;;;;;;;;13.30;99.90;;;;;;5050591;28;20028;-89
2022/07/01 09:05:31;;;;;;;15.50;11.77;;;13.20;99.90;;;;;;5084196;28;19996;-89
2022/07/01 09:08:03;;;;;;;23.23;14.65;;;13.20;99.90;;;;;;5051603;28;20072;-89
2022/07/01 09:10:37;;;;;;;18.10;13.05;;;13.20;99.90;;;;;;5062856;28;20043;-90
2022/07/01 09:13:08;;;;;;;19.13;12.55;;;13.20;99.90;;;;;;5050234;28;20033;-89
2022/07/01 09:15:35;;;;;;;17.40;12.50;;;13.10;99.90;;;;;;5051279;28;20063;-91
2022/07/01 09:18:16;;;;;;;15.48;11.15;;;13.20;99.90;;;;;;5049623;28;20056;-88
2022/07/01 09:20:44;;;;;;;15.38;10.73;;;13.20;99.90;;;;;;5063614;28;20236;-89
2022/07/01 09:23:12;;;;;;;13.32;10.68;;;13.10;99.90;;;;;;5065930;28;20033;-91
2022/07/01 09:25:52;;;;;;;14.77;10.77;;;12.90;99.90;;;;;;5066543;28;20060;-89
2022/07/01 09:28:24;;;;;;;14.73;10.30;;;12.80;99.90;;;;;;5046973;28;20082;-87
2022/07/01 09:30:54;;;;;;;11.57;9.98;;;12.80;99.90;;;;;;5051648;28;20052;-89
2022/07/01 09:33:25;;;;;;;17.10;11.82;;;12.60;99.90;;;;;;5049431;28;20087;-87
2022/07/01 09:36:00;;;;;;;20.10;12.80;;;12.60;99.90;;;;;;5031595;28;20044;-89
2022/07/01 09:38:52;;;;;;;18.60;12.73;;;12.80;99.90;;;;;;5054573;28;20040;-89
2022/07/01 09:41:59;;;;;;;18.42;12.65;;;13.00;99.90;;;;;;5037967;28;20409;-87
2022/07/01 09:44:51;;;;;;;21.10;12.20;;;12.90;99.90;;;;;;5040254;28;20400;-87
2022/07/01 09:47:17;;;;;;;12.43;9.77;;;13.10;99.90;;;;;;5060779;28;20033;-87
2022/07/01 09:49:43;;;;;;;14.23;10.18;;;13.50;99.90;;;;;;5064364;28;20116;-87
2022/07/01 09:52:14;;;;;;;12.48;7.43;;;14.00;99.90;;;;;;5052457;28;20474;-88
2022/07/01 09:54:40;;;;;;;11.43;8.75;;;14.50;99.90;;;;;;5052115;28;20037;-89
2022/07/01 09:57:06;;;;;;;9.80;5.97;;;15.00;99.90;;;;;;5053190;28;20032;-88
2022/07/01 09:59:32;;;;;;;7.63;5.28;;;15.60;99.90;;;;;;5054546;28;20104;-90
2022/07/01 10:01:58;;;;;;;7.22;4.75;;;16.50;99.90;;;;;;5050709;28;20665;-89
2022/07/01 10:04:34;;;;;;;7.25;4.47;;;16.80;99.90;;;;;;5052466;28;20029;-90
2022/07/01 10:07:28;;;;;;;5.05;3.60;;;16.70;99.90;;;;;;5066476;28;20071;-89
2022/07/01 10:10:23;;;;;;;6.53;4.38;;;16.60;99.90;;;;;;5049320;28;20025;-89
2022/07/01 10:12:54;;;;;;;9.07;5.03;;;16.70;99.90;;;;;;5050308;28;20087;-89
2022/07/01 10:15:20;;;;;;;;;;;16.80;99.90;;;;;;5033794;28;20072;-89
2022/07/01 10:17:48;;;;;;;8.88;5.70;;;16.50;99.90;;;;;;5083912;28;19908;-89
2022/07/01 10:20:26;;;;;;;9.77;5.97;;;16.00;99.90;;;;;;5066728;28;20158;-89
2022/07/01 10:23:01;;;;;;;9.30;6.20;;;15.50;99.90;;;;;;5049195;28;20060;-91
2022/07/01 10:25:41;;;;;;;8.15;6.30;;;15.10;99.90;;;;;;5033545;28;20115;-89
2022/07/01 10:28:25;;;;;;;9.50;6.03;;;15.30;99.90;;;;;;5063859;28;20025;-89
2022/07/01 10:31:00;;;;;;;11.73;5.88;;;15.50;99.90;;;;;;5065736;28;20028;-89
2022/07/01 10:33:31;;;;;;;6.22;4.38;;;16.00;99.90;;;;;;5049979;28;20115;-90
2022/07/01 10:36:26;;;;;;;6.13;5.32;;;16.30;99.90;;;;;;5066602;28;20322;-89
2022/07/01 10:39:10;;;;;;;6.38;5.50;;;16.30;99.90;;;;;;5066292;28;20025;-90
2022/07/01 10:41:52;;;;;;;5.55;4.93;;;16.60;99.90;;;;;;5050945;28;20057;-89
2022/07/01 10:44:25;;;;;;;5.40;4.47;;;16.80;99.90;;;;;;5050191;28;20028;-90
2022/07/01 10:47:01;;;;;;;5.82;4.07;;;17.20;99.90;;;;;;5068509;28;20056;-90
2022/07/01 10:49:36;;;;;;;6.07;4.75;;;16.90;99.90;;;;;;5048159;28;20422;-90
2022/07/01 10:52:07;;;;;;;4.85;3.78;;;16.70;99.90;;;;;;5061236;28;20040;-88
2022/07/01 10:54:36;;;;;;;;;;;16.90;99.90;;;;;;5066688;28;20029;-90
2022/07/01 10:57:22;;;;;;;8.23;3.90;;;17.20;99.90;;;;;;5066890;28;19987;-89
2022/07/01 10:59:50;;;;;;;6.18;4.47;;;17.20;99.90;;;;;;5063579;28;20044;-88
2022/07/01 11:02:21;;;;;;;13.02;5.88;;;17.30;99.90;;;;;;5051042;28;20017;-90
2022/07/01 11:04:52;;;;;;;6.82;4.75;;;17.20;99.90;;;;;;5049074;28;20615;-89
2022/07/01 11:07:18;;;;;;;4.87;4.00;;;17.30;99.90;;;;;;5050092;28;20037;-89
2022/07/01 11:09:44;;;;;;;9.50;3.97;;;17.20;99.90;;;;;;5052923;28;20310;-89
2022/07/01 11:12:10;;;;;;;4.85;4.38;;;16.80;99.90;;;;;;5053204;28;20061;-90
2022/07/01 11:14:37;;;;;;;7.28;4.10;;;16.90;99.90;;;;;;5067183;28;20040;-88
2022/07/01 11:17:09;;;;;;;5.68;4.70;;;17.10;99.90;;;;;;5053386;28;20097;-91
2022/07/01 11:19:36;;;;;;;54.40;30.40;;;17.10;99.90;;;;;;5062626;28;20436;-90
2022/07/01 11:22:05;;;;;;;10.23;6.22;;;17.30;99.90;;;;;;5050207;28;20079;-90
2022/07/01 11:24:30;;;;;;;11.85;4.75;;;17.10;99.90;;;;;;5028721;28;20482;-89
2022/07/01 11:27:08;;;;;;;6.45;3.28;;;17.00;99.90;;;;;;5067652;28;20025;-89
2022/07/01 11:29:34;;;;;;;4.85;3.63;;;17.80;99.90;;;;;;5050237;28;20036;-90
2022/07/01 11:32:00;;;;;;;5.45;3.42;;;18.00;99.90;;;;;;5066484;28;20422;-91
2022/07/01 11:34:30;;;;;;;4.40;3.55;;;18.30;99.90;;;;;;5049294;28;20036;-88
2022/07/01 11:39:43;;;;;;;4.50;3.40;;;19.30;99.90;;;;;;5049683;28;20033;-89
2022/07/01 11:42:11;;;;;;;3.67;3.03;;;19.90;99.90;;;;;;5050807;28;20588;-88
2022/07/01 11:44:38;;;;;;;4.97;2.70;;;19.80;99.90;;;;;;5050176;28;20031;-89
2022/07/01 11:47:07;;;;;;;3.88;3.22;;;19.60;99.90;;;;;;5028148;28;20116;-87
2022/07/01 11:49:33;;;;;;;31.25;5.18;;;19.40;99.90;;;;;;5050274;28;20466;-89
2022/07/01 11:52:07;;;;;;;6.28;2.83;;;19.10;99.90;;;;;;5049301;28;20028;-89
2022/07/01 11:54:40;;;;;;;2.95;2.63;;;18.50;99.90;;;;;;5050467;28;20040;-88
2022/07/01 11:57:17;;;;;;;9.07;4.13;;;18.30;99.90;;;;;;5048011;28;20036;-87
2022/07/01 11:59:45;;;;;;;5.25;3.22;;;18.60;99.90;;;;;;5033598;28;20044;-88
2022/07/01 12:02:15;;;;;;;4.88;3.40;;;19.40;99.90;;;;;;5049023;28;20115;-89
2022/07/01 12:04:43;;;;;;;4.75;2.92;;;20.30;99.90;;;;;;5040967;28;20159;-89
2022/07/01 12:07:10;;;;;;;4.72;2.90;;;20.30;99.90;;;;;;5064002;28;20074;-88
2022/07/01 12:09:37;;;;;;;3.83;2.75;;;20.20;99.90;;;;;;5033148;28;20466;-88
2022/07/01 12:12:04;;;;;;;6.70;2.97;;;19.50;99.90;;;;;;5047189;28;20029;-87
2022/07/01 12:14:35;;;;;;;4.05;2.88;;;18.90;99.90;;;;;;5047428;28;20072;-87
2022/07/01 12:17:04;;;;;;;3.45;2.60;;;18.80;99.90;;;;;;5033577;28;20032;-90
2022/07/01 12:19:35;;;;;;;4.20;2.80;;;19.50;99.90;;;;;;5049982;28;20138;-89
2022/07/01 12:22:12;;;;;;;3.38;2.65;;;19.90;99.90;;;;;;5031382;28;20024;-90
2022/07/01 12:24:38;;;;;;;5.25;2.80;;;20.30;99.90;;;;;;5048515;28;20051;-89
2022/07/01 12:27:06;;;;;;;4.65;2.75;;;20.80;99.90;;;;;;5055210;28;20017;-92
2022/07/01 12:29:58;;;;;;;3.78;2.58;;;21.30;99.90;;;;;;5033591;28;20023;-90
2022/07/01 12:32:27;;;;;;;5.40;2.72;;;20.80;99.90;;;;;;5040317;28;20043;-86
2022/07/01 12:35:33;;;;;;;3.08;2.42;;;20.80;99.90;;;;;;5048427;28;20113;-86
2022/07/01 12:37:58;;;;;;;3.05;2.75;;;21.40;99.90;;;;;;5047908;28;20043;-87
2022/07/01 12:40:30;;;;;;;2.85;2.10;;;22.50;99.90;;;;;;5048229;28;20033;-86
2022/07/01 12:42:59;;;;;;;6.93;2.45;;;22.90;99.90;;;;;;5048246;28;20465;-86
2022/07/01 12:45:27;;;;;;;4.05;2.40;;;22.40;99.90;;;;;;5031846;28;20036;-87
2022/07/01 12:47:59;;;;;;;3.67;2.35;;;22.00;99.90;;;;;;5047783;28;20033;-86
2022/07/01 12:50:27;;;;;;;4.60;2.22;;;22.10;99.90;;;;;;5049433;28;20027;-86
2022/07/01 12:53:10;;;;;;;3.42;2.42;;;21.50;99.90;;;;;;5050460;28;20529;-86
2022/07/01 12:55:41;;;;;;;3.40;2.50;;;20.80;99.90;;;;;;5063988;28;20041;-86
2022/07/01 12:58:11;;;;;;;;;;;20.30;99.90;;;;;;5050573;28;20052;-86
2022/07/01 13:00:42;;;;;;;4.65;2.60;;;20.70;99.90;;;;;;5064565;28;19948;-86
2022/07/01 13:03:18;;;;;;;;;;;20.70;99.90;;;;;;5049981;28;20021;-86
2022/07/01 13:05:44;;;;;;;5.63;2.40;;;20.40;99.90;;;;;;5024046;28;19913;-87
2022/07/01 13:08:10;;;;;;;3.28;2.00;;;21.00;99.90;;;;;;5063934;28;20036;-87
2022/07/01 13:10:37;;;;;;;4.25;1.98;;;22.50;99.90;;;;;;5048253;28;20477;-88
2022/07/01 13:13:03;;;;;;;3.13;1.80;;;23.40;99.90;;;;;;5048685;28;20055;-88
2022/07/01 13:15:32;;;;;;;8.60;1.92;;;22.60;99.90;;;;;;5048049;28;20029;-87
2022/07/01 13:17:58;;;;;;;4.80;2.10;;;22.00;99.90;;;;;;5049802;28;20025;-87
2022/07/01 13:20:24;;;;;;;3.67;1.83;;;22.10;99.90;;;;;;5049348;28;20119;-88